Time;durP1;ratioP1;P1;durP2;ratioP2;P2;SDS_P1;SDS_P2;PMS_P1;PMS_P2;Temp;Humidity;BMP_temperature;BMP_pressure;BME280_temperature;BME280_humidity;BME280_pressure;Samples;Min_cycle;Max_cycle;Signal;HPM_P1;HPM_P2
2021/08/23 00:00:45;;;;;;;9.68;7.35;;;20.20;99.90;;;;;;2072038;28;20029;-71
2021/08/23 00:01:45;;;;;;;8.98;8.18;;;20.20;99.90;;;;;;2071834;28;20034;-71
2021/08/23 00:02:46;;;;;;;8.88;7.65;;;20.30;99.90;;;;;;2071789;28;20540;-71
2021/08/23 00:03:46;;;;;;;9.10;8.02;;;20.20;99.90;;;;;;2072194;28;20100;-71
2021/08/23 00:04:47;;;;;;;8.43;7.40;;;20.20;99.90;;;;;;2073214;28;20030;-71
2021/08/23 00:05:48;;;;;;;8.55;7.85;;;20.20;99.90;;;;;;2076466;28;20042;-71
2021/08/23 00:06:48;;;;;;;8.82;7.90;;;20.20;99.90;;;;;;2071536;28;20026;-71
2021/08/23 00:07:49;;;;;;;8.77;7.90;;;20.20;99.90;;;;;;2067787;28;20647;-71
2021/08/23 00:08:50;;;;;;;8.43;6.78;;;20.20;99.90;;;;;;2071802;28;20065;-71
2021/08/23 00:09:51;;;;;;;9.68;7.95;;;20.20;99.90;;;;;;2071851;28;20146;-71
2021/08/23 00:10:52;;;;;;;8.50;7.78;;;20.20;99.90;;;;;;2076063;28;20033;-71
2021/08/23 00:11:53;;;;;;;8.65;7.65;;;20.20;99.90;;;;;;2079881;28;20119;-71
2021/08/23 00:12:53;;;;;;;7.35;6.75;;;20.20;99.90;;;;;;2072150;28;20083;-71
2021/08/23 00:13:54;;;;;;;9.18;8.27;;;20.20;99.90;;;;;;2071753;28;20521;-71
2021/08/23 00:14:55;;;;;;;8.57;7.78;;;20.20;99.90;;;;;;2072124;28;20030;-71
2021/08/23 00:15:55;;;;;;;9.15;8.23;;;20.20;99.90;;;;;;2071655;28;20048;-71
2021/08/23 00:16:56;;;;;;;9.15;8.23;;;20.20;99.90;;;;;;2072249;28;20021;-71
2021/08/23 00:17:57;;;;;;;12.48;8.32;;;20.20;99.90;;;;;;2071981;28;20076;-71
2021/08/23 00:18:57;;;;;;;8.95;8.05;;;20.20;99.90;;;;;;2072008;28;20084;-71
2021/08/23 00:19:58;;;;;;;8.45;7.50;;;20.20;99.90;;;;;;2071523;28;20045;-71
2021/08/23 00:21:02;;;;;;;8.15;6.53;;;20.20;99.90;;;;;;2073004;28;20090;-71
2021/08/23 00:22:29;;;;;;;8.75;7.90;;;20.20;99.90;;;;;;2071528;28;20030;-71
2021/08/23 00:23:36;;;;;;;9.90;7.60;;;20.20;99.90;;;;;;2071557;28;20080;-70
2021/08/23 00:24:37;;;;;;;8.23;7.45;;;20.20;99.90;;;;;;2071789;28;20049;-70
2021/08/23 00:25:38;;;;;;;9.27;8.40;;;20.10;99.90;;;;;;2071991;28;20034;-70
2021/08/23 00:26:39;;;;;;;7.82;7.10;;;20.10;99.90;;;;;;2071686;28;20026;-70
2021/08/23 00:27:40;;;;;;;7.80;7.10;;;20.20;99.90;;;;;;2072084;28;20030;-70
2021/08/23 00:28:40;;;;;;;9.15;8.30;;;20.20;99.90;;;;;;2071663;28;20018;-70
2021/08/23 00:29:42;;;;;;;8.63;7.78;;;20.10;99.90;;;;;;2071661;28;20114;-71
2021/08/23 00:30:43;;;;;;;9.85;7.30;;;20.20;99.90;;;;;;2071638;28;20030;-71
2021/08/23 00:31:46;;;;;;;8.35;7.55;;;20.10;99.90;;;;;;2071560;28;20026;-71
2021/08/23 00:32:46;;;;;;;9.18;8.38;;;20.20;99.90;;;;;;2071599;28;20490;-70
2021/08/23 00:33:47;;;;;;;9.95;8.02;;;20.20;99.90;;;;;;2071937;28;20364;-71
2021/08/23 00:34:48;;;;;;;10.00;8.30;;;20.10;99.90;;;;;;2070914;28;20030;-71
2021/08/23 00:35:49;;;;;;;8.50;7.63;;;20.10;99.90;;;;;;2071379;28;20037;-70
2021/08/23 00:36:49;;;;;;;8.70;7.82;;;20.20;99.90;;;;;;2071516;28;20026;-70
2021/08/23 00:37:50;;;;;;;8.43;7.30;;;20.10;99.90;;;;;;2072780;28;20029;-71
2021/08/23 00:38:51;;;;;;;8.20;7.40;;;20.20;99.90;;;;;;2071553;28;20021;-71
2021/08/23 00:39:52;;;;;;;8.95;7.72;;;20.10;99.90;;;;;;2071784;28;20109;-71
2021/08/23 00:40:53;;;;;;;8.02;7.03;;;20.10;99.90;;;;;;2071726;28;20364;-71
2021/08/23 00:41:53;;;;;;;8.43;7.43;;;20.10;99.90;;;;;;2071562;28;20050;-71
2021/08/23 00:42:54;;;;;;;9.27;7.57;;;20.10;99.90;;;;;;2070887;28;20037;-71
2021/08/23 00:43:54;;;;;;;8.93;7.60;;;20.10;99.90;;;;;;2070191;28;20022;-71
2021/08/23 00:44:55;;;;;;;7.78;7.05;;;20.10;99.90;;;;;;2068290;28;20018;-71
2021/08/23 00:45:55;;;;;;;6.78;6.07;;;20.10;99.90;;;;;;2071016;28;20050;-71
2021/08/23 00:46:58;;;;;;;12.07;8.18;;;20.10;99.90;;;;;;2071581;28;20026;-71
2021/08/23 00:47:59;;;;;;;8.35;7.53;;;20.00;99.90;;;;;;2071657;28;20033;-71
2021/08/23 00:49:00;;;;;;;8.52;7.72;;;20.10;99.90;;;;;;2071539;28;20064;-71
2021/08/23 00:50:02;;;;;;;8.77;7.93;;;20.10;99.90;;;;;;2071792;28;20479;-71
2021/08/23 00:51:03;;;;;;;8.65;7.75;;;20.00;99.90;;;;;;2071575;28;20163;-71
2021/08/23 00:52:05;;;;;;;9.77;7.53;;;20.10;99.90;;;;;;2071684;28;20022;-71
2021/08/23 00:53:06;;;;;;;9.23;8.32;;;20.00;99.90;;;;;;2071125;28;20014;-70
2021/08/23 00:54:06;;;;;;;8.93;8.13;;;20.00;99.90;;;;;;2075646;28;20112;-70
2021/08/23 00:55:07;;;;;;;8.55;7.65;;;20.00;99.90;;;;;;2071533;28;20022;-71
2021/08/23 00:56:09;;;;;;;8.63;6.70;;;20.00;99.90;;;;;;2071446;28;20445;-71
2021/08/23 00:57:10;;;;;;;7.72;7.00;;;20.00;99.90;;;;;;2072002;28;20014;-71
2021/08/23 00:58:11;;;;;;;10.73;7.90;;;20.00;99.90;;;;;;2071828;28;20017;-71
2021/08/23 00:59:11;;;;;;;8.38;7.57;;;20.00;99.90;;;;;;2071650;28;20022;-71
2021/08/23 01:00:13;;;;;;;9.23;6.70;;;20.00;99.90;;;;;;2071597;28;20025;-71
2021/08/23 01:01:27;;;;;;;8.13;7.32;;;20.00;99.90;;;;;;2071063;28;20026;-71
2021/08/23 01:02:47;;;;;;;8.98;6.88;;;19.90;99.90;;;;;;2069110;28;20472;-71
2021/08/23 01:04:03;;;;;;;8.45;6.13;;;19.90;99.90;;;;;;2063447;28;20109;-71
2021/08/23 01:05:17;;;;;;;8.68;6.75;;;19.90;99.90;;;;;;2063688;28;20034;-71
2021/08/23 01:06:19;;;;;;;8.02;6.97;;;19.80;99.90;;;;;;2070530;28;20030;-71
2021/08/23 01:07:23;;;;;;;8.57;7.72;;;19.80;99.90;;;;;;2071501;28;20367;-71
2021/08/23 01:08:32;;;;;;;8.52;7.35;;;19.80;99.90;;;;;;2072847;28;20116;-71
2021/08/23 01:09:35;;;;;;;7.78;6.97;;;19.80;99.90;;;;;;2073003;28;20026;-71
2021/08/23 01:10:46;;;;;;;5.47;4.97;;;19.80;99.90;;;;;;2070377;28;20109;-71
2021/08/23 01:11:51;;;;;;;8.70;6.38;;;19.80;99.90;;;;;;2069700;28;20077;-71
2021/08/23 01:12:53;;;;;;;8.02;7.07;;;19.70;99.90;;;;;;2070576;28;20493;-71
2021/08/23 01:13:53;;;;;;;8.38;7.25;;;19.70;99.90;;;;;;2071505;28;20026;-71
2021/08/23 01:14:54;;;;;;;8.20;7.35;;;19.70;99.90;;;;;;2071691;28;20495;-71
2021/08/23 01:15:54;;;;;;;7.68;6.70;;;19.70;99.90;;;;;;2071537;28;20092;-71
2021/08/23 01:16:55;;;;;;;8.13;6.28;;;19.70;99.90;;;;;;2071480;28;20129;-71
2021/08/23 01:17:56;;;;;;;7.57;6.22;;;19.70;99.90;;;;;;2071710;28;20014;-71
2021/08/23 01:18:56;;;;;;;7.70;5.72;;;19.60;99.90;;;;;;2071387;28;20045;-71
2021/08/23 01:20:01;;;;;;;6.72;6.10;;;19.70;99.90;;;;;;2071411;28;20026;-71
2021/08/23 01:21:06;;;;;;;6.40;5.90;;;19.60;99.90;;;;;;2071386;28;20017;-71
2021/08/23 01:22:10;;;;;;;8.30;6.80;;;19.60;99.90;;;;;;2066893;28;20103;-71
2021/08/23 01:23:12;;;;;;;7.50;6.68;;;19.60;99.90;;;;;;2070826;28;20080;-71
2021/08/23 01:24:14;;;;;;;7.38;6.68;;;19.60;99.90;;;;;;2070879;28;20021;-71
2021/08/23 01:25:20;;;;;;;8.32;6.95;;;19.60;99.90;;;;;;2071511;28;20099;-71
2021/08/23 01:26:25;;;;;;;7.47;6.78;;;19.50;99.90;;;;;;2071314;28;20466;-71
2021/08/23 01:27:30;;;;;;;7.32;6.72;;;19.50;99.90;;;;;;2071073;28;20391;-71
2021/08/23 01:28:58;;;;;;;6.25;5.70;;;19.50;99.90;;;;;;2071347;28;20121;-70
2021/08/23 01:30:10;;;;;;;6.53;6.03;;;19.50;99.90;;;;;;2071621;28;20074;-70
2021/08/23 01:31:10;;;;;;;10.45;5.90;;;19.50;99.90;;;;;;2076019;28;20029;-70
2021/08/23 01:32:19;;;;;;;7.75;6.97;;;19.40;99.90;;;;;;2072976;28;20018;-71
2021/08/23 01:33:19;;;;;;;7.90;6.55;;;19.40;99.90;;;;;;2071330;28;20029;-71
2021/08/23 01:34:23;;;;;;;8.18;7.13;;;19.40;99.90;;;;;;2071835;28;20025;-71
2021/08/23 01:35:24;;;;;;;8.52;7.55;;;19.40;99.90;;;;;;2071445;28;20052;-71
2021/08/23 01:36:25;;;;;;;11.00;7.20;;;19.40;99.90;;;;;;2072918;28;20018;-71
2021/08/23 01:37:25;;;;;;;7.80;7.03;;;19.30;99.90;;;;;;2071589;28;20026;-71
2021/08/23 01:38:26;;;;;;;8.48;6.95;;;19.40;99.90;;;;;;2071283;28;20067;-71
2021/08/23 01:39:26;;;;;;;10.10;7.55;;;19.30;99.90;;;;;;2071741;28;20026;-71
2021/08/23 01:40:27;;;;;;;8.70;7.30;;;19.30;99.90;;;;;;2071558;28;20026;-71
2021/08/23 01:41:28;;;;;;;8.95;7.85;;;19.30;99.90;;;;;;2071051;28;20034;-71
2021/08/23 01:42:30;;;;;;;7.35;6.25;;;19.30;99.90;;;;;;2071424;28;20061;-71
2021/08/23 01:43:30;;;;;;;8.07;6.88;;;19.30;99.90;;;;;;2071096;28;20030;-71
2021/08/23 01:44:31;;;;;;;8.90;7.03;;;19.30;99.90;;;;;;2071443;28;20041;-71
2021/08/23 01:45:32;;;;;;;8.93;7.28;;;19.30;99.90;;;;;;2071293;28;20042;-71
2021/08/23 01:46:32;;;;;;;8.40;7.38;;;19.30;99.90;;;;;;2071243;28;20044;-71
2021/08/23 01:47:33;;;;;;;8.60;6.93;;;19.20;99.90;;;;;;2071393;28;20057;-71
2021/08/23 01:48:33;;;;;;;6.25;5.65;;;19.20;99.90;;;;;;2071532;28;20080;-71
2021/08/23 01:49:35;;;;;;;8.65;7.20;;;19.20;99.90;;;;;;2071298;28;20489;-71
2021/08/23 01:50:35;;;;;;;8.73;6.43;;;19.20;99.90;;;;;;2077450;28;20029;-71
2021/08/23 01:51:36;;;;;;;6.53;5.93;;;19.20;99.90;;;;;;2072006;28;20723;-71
2021/08/23 01:52:37;;;;;;;8.43;7.25;;;19.10;99.90;;;;;;2071164;28;20026;-71
2021/08/23 01:53:38;;;;;;;10.27;7.15;;;19.10;99.90;;;;;;2070651;28;20029;-71
2021/08/23 01:54:42;;;;;;;8.40;7.47;;;19.10;99.90;;;;;;2070724;28;20072;-71
2021/08/23 01:55:43;;;;;;;6.53;5.90;;;19.10;99.90;;;;;;2063309;28;20019;-71
2021/08/23 01:56:44;;;;;;;7.65;6.95;;;19.10;99.90;;;;;;2071246;28;20021;-71
2021/08/23 01:57:44;;;;;;;6.68;6.00;;;19.10;99.90;;;;;;2071241;28;20030;-71
2021/08/23 01:58:45;;;;;;;9.25;6.65;;;19.10;99.90;;;;;;2071489;28;20041;-71
2021/08/23 01:59:46;;;;;;;9.93;6.35;;;19.10;99.90;;;;;;2071234;28;20101;-71
2021/08/23 02:00:47;;;;;;;7.13;6.47;;;19.10;99.90;;;;;;2071009;28;20037;-71
2021/08/23 02:01:48;;;;;;;12.10;8.45;;;19.10;99.90;;;;;;2071092;28;20485;-71
2021/08/23 02:02:48;;;;;;;14.82;6.88;;;19.00;99.90;;;;;;2071223;28;20549;-70
2021/08/23 02:03:49;;;;;;;8.18;6.80;;;19.10;99.90;;;;;;2074199;28;20026;-71
2021/08/23 02:04:49;;;;;;;10.52;7.80;;;19.10;99.90;;;;;;2073813;28;20359;-71
2021/08/23 02:05:50;;;;;;;8.27;7.47;;;19.10;99.90;;;;;;2072796;28;20029;-71
2021/08/23 02:06:50;;;;;;;11.05;7.43;;;19.10;99.90;;;;;;2073122;28;20042;-71
2021/08/23 02:07:51;;;;;;;9.23;7.78;;;19.10;99.90;;;;;;2072904;28;20030;-71
2021/08/23 02:08:53;;;;;;;8.73;7.93;;;19.00;99.90;;;;;;2073001;28;20076;-71
2021/08/23 02:09:56;;;;;;;9.07;8.18;;;19.00;99.90;;;;;;2072820;28;20026;-71
2021/08/23 02:10:57;;;;;;;11.05;9.00;;;19.10;99.90;;;;;;2072778;28;20054;-71
2021/08/23 02:11:57;;;;;;;11.88;8.88;;;19.10;99.90;;;;;;2072766;28;20034;-71
2021/08/23 02:12:58;;;;;;;9.55;8.55;;;19.10;99.90;;;;;;2072330;28;20462;-71
2021/08/23 02:13:58;;;;;;;10.27;9.27;;;19.10;99.90;;;;;;2073043;28;20033;-71
2021/08/23 02:14:59;;;;;;;11.32;10.13;;;19.10;99.90;;;;;;2073162;28;20592;-71
2021/08/23 02:15:59;;;;;;;12.40;8.25;;;19.10;99.90;;;;;;2072767;28;20359;-71
2021/08/23 02:17:00;;;;;;;10.00;9.07;;;19.10;99.90;;;;;;2072870;28;20030;-71
2021/08/23 02:18:00;;;;;;;9.95;9.05;;;19.10;99.90;;;;;;2077647;28;20571;-71
2021/08/23 02:19:01;;;;;;;9.18;8.25;;;19.10;99.90;;;;;;2068414;28;20169;-71
2021/08/23 02:20:04;;;;;;;8.38;7.68;;;19.10;99.90;;;;;;2064322;28;20026;-71
2021/08/23 02:21:06;;;;;;;8.57;7.82;;;19.10;99.90;;;;;;2071726;28;20025;-71
2021/08/23 02:22:06;;;;;;;12.50;9.43;;;19.10;99.90;;;;;;2072964;28;20022;-71
2021/08/23 02:23:07;;;;;;;10.32;9.32;;;19.10;99.90;;;;;;2072286;28;20018;-71
2021/08/23 02:24:07;;;;;;;11.73;8.48;;;19.10;99.90;;;;;;2072767;28;20025;-71
2021/08/23 02:25:09;;;;;;;11.15;8.52;;;19.10;99.90;;;;;;2072747;28;20025;-70
2021/08/23 02:26:09;;;;;;;9.73;8.60;;;19.10;99.90;;;;;;2072893;28;20022;-70
2021/08/23 02:27:11;;;;;;;12.07;10.07;;;19.10;99.90;;;;;;2072662;28;20076;-70
2021/08/23 02:28:12;;;;;;;10.45;9.15;;;19.10;99.90;;;;;;2072580;28;20045;-71
2021/08/23 02:29:13;;;;;;;11.15;10.05;;;19.10;99.90;;;;;;2072644;28;20918;-71
2021/08/23 02:30:13;;;;;;;9.35;8.45;;;19.20;99.90;;;;;;2072390;28;20061;-71
2021/08/23 02:31:14;;;;;;;8.95;7.63;;;19.20;99.90;;;;;;2074156;28;20045;-71
2021/08/23 02:32:14;;;;;;;11.38;9.23;;;19.10;99.90;;;;;;2072936;28;20028;-71
2021/08/23 02:33:15;;;;;;;12.10;9.05;;;19.20;99.90;;;;;;2072530;28;20029;-71
2021/08/23 02:34:15;;;;;;;15.27;9.50;;;19.10;99.90;;;;;;2072368;28;20479;-71
2021/08/23 02:35:17;;;;;;;9.48;8.60;;;19.20;99.90;;;;;;2072378;28;20104;-71
2021/08/23 02:36:18;;;;;;;14.80;10.95;;;19.20;99.90;;;;;;2073160;28;20048;-71
2021/08/23 02:37:18;;;;;;;11.10;10.00;;;19.20;99.90;;;;;;2073322;28;20032;-71
2021/08/23 02:38:19;;;;;;;11.45;9.05;;;19.20;99.90;;;;;;2073091;28;20022;-71
2021/08/23 02:39:19;;;;;;;10.15;8.95;;;19.20;99.90;;;;;;2072935;28;20032;-71
2021/08/23 02:40:20;;;;;;;7.97;6.93;;;19.20;99.90;;;;;;2072669;28;20022;-71
2021/08/23 02:41:20;;;;;;;9.57;7.40;;;19.20;99.90;;;;;;2072838;28;20021;-71
2021/08/23 02:42:21;;;;;;;13.30;8.88;;;19.20;99.90;;;;;;2073022;28;20029;-71
2021/08/23 02:43:21;;;;;;;9.20;8.30;;;19.20;99.90;;;;;;2072052;28;20041;-71
2021/08/23 02:44:22;;;;;;;15.13;9.60;;;19.10;99.90;;;;;;2072858;28;20029;-71
2021/08/23 02:45:23;;;;;;;9.50;8.60;;;19.20;99.90;;;;;;2076747;28;20109;-71
2021/08/23 02:46:24;;;;;;;9.05;7.88;;;19.10;99.90;;;;;;2079148;28;20091;-71
2021/08/23 02:47:24;;;;;;;9.48;8.35;;;19.20;99.90;;;;;;2080273;28;20030;-71
2021/08/23 02:48:25;;;;;;;10.48;8.00;;;19.20;99.90;;;;;;2074321;28;20129;-71
2021/08/23 02:49:26;;;;;;;8.25;7.47;;;19.10;99.90;;;;;;2072417;28;20022;-71
2021/08/23 02:50:27;;;;;;;9.27;8.38;;;19.10;99.90;;;;;;2072718;28;20469;-71
2021/08/23 02:51:27;;;;;;;10.13;9.13;;;19.10;99.90;;;;;;2071699;28;20049;-71
2021/08/23 02:52:28;;;;;;;9.73;8.63;;;19.10;99.90;;;;;;2071876;28;20022;-71
2021/08/23 02:53:29;;;;;;;11.65;9.85;;;19.10;99.90;;;;;;2064246;28;20479;-71
2021/08/23 02:54:29;;;;;;;16.40;9.82;;;19.10;99.90;;;;;;2067924;28;20054;-71
2021/08/23 02:55:30;;;;;;;11.82;9.85;;;19.10;99.90;;;;;;2072517;28;20113;-71
2021/08/23 02:56:30;;;;;;;9.45;8.57;;;19.20;99.90;;;;;;2072174;28;20466;-71
2021/08/23 02:57:31;;;;;;;9.80;8.93;;;19.10;99.90;;;;;;2071645;28;20022;-71
2021/08/23 02:58:32;;;;;;;12.68;10.02;;;19.10;99.90;;;;;;2072240;28;20034;-71
2021/08/23 02:59:34;;;;;;;10.30;9.30;;;19.20;99.90;;;;;;2072330;28;20100;-71
2021/08/23 03:00:35;;;;;;;12.60;10.43;;;19.20;99.90;;;;;;2072681;28;20489;-71
2021/08/23 03:01:35;;;;;;;10.75;9.68;;;19.20;99.90;;;;;;2072570;28;20449;-71
2021/08/23 03:02:36;;;;;;;11.30;9.45;;;19.20;99.90;;;;;;2071845;28;20069;-71
2021/08/23 03:03:37;;;;;;;14.20;9.52;;;19.20;99.90;;;;;;2072796;28;20746;-71
2021/08/23 03:04:37;;;;;;;10.65;9.55;;;19.20;99.90;;;;;;2072419;28;20413;-71
2021/08/23 03:05:38;;;;;;;12.00;10.93;;;19.20;99.90;;;;;;2072498;28;20092;-71
2021/08/23 03:06:38;;;;;;;12.45;11.27;;;19.20;99.90;;;;;;2072495;28;20025;-71
2021/08/23 03:07:39;;;;;;;14.75;10.52;;;19.20;99.90;;;;;;2072497;28;20108;-71
2021/08/23 03:08:39;;;;;;;11.90;9.23;;;19.20;99.90;;;;;;2072290;28;20473;-71
2021/08/23 03:09:40;;;;;;;9.90;8.95;;;19.30;99.90;;;;;;2072385;28;20026;-71
2021/08/23 03:10:41;;;;;;;10.57;9.50;;;19.20;99.90;;;;;;2072218;28;20022;-71
2021/08/23 03:11:41;;;;;;;8.60;7.50;;;19.20;99.90;;;;;;2072571;28;20492;-71
2021/08/23 03:12:42;;;;;;;10.50;9.50;;;19.20;99.90;;;;;;2071889;28;20501;-71
2021/08/23 03:13:44;;;;;;;11.70;10.48;;;19.30;99.90;;;;;;2072332;28;20056;-71
2021/08/23 03:14:45;;;;;;;10.52;9.63;;;19.20;99.90;;;;;;2076206;28;20108;-71
2021/08/23 03:15:46;;;;;;;14.57;9.65;;;19.20;99.90;;;;;;2075243;28;20489;-71
2021/08/23 03:16:46;;;;;;;11.45;9.18;;;19.20;99.90;;;;;;2072321;28;20140;-71
2021/08/23 03:17:47;;;;;;;11.75;10.68;;;19.20;99.90;;;;;;2072752;28;20124;-71
2021/08/23 03:18:47;;;;;;;11.88;10.05;;;19.30;99.90;;;;;;2072413;28;20045;-71
2021/08/23 03:19:48;;;;;;;12.55;11.32;;;19.30;99.90;;;;;;2071995;28;20112;-71
2021/08/23 03:20:48;;;;;;;12.55;11.38;;;19.30;99.90;;;;;;2071436;28;20065;-71
2021/08/23 03:21:49;;;;;;;14.00;10.68;;;19.30;99.90;;;;;;2065724;28;20076;-71
2021/08/23 03:22:50;;;;;;;12.02;10.85;;;19.30;99.90;;;;;;2069745;28;20425;-71
2021/08/23 03:23:50;;;;;;;13.20;11.90;;;19.30;99.90;;;;;;2072276;28;20041;-71
2021/08/23 03:24:51;;;;;;;12.10;10.90;;;19.30;99.90;;;;;;2072093;28;20038;-71
2021/08/23 03:25:51;;;;;;;12.75;11.57;;;19.30;99.90;;;;;;2072259;28;20107;-71
2021/08/23 03:26:52;;;;;;;14.35;12.88;;;19.30;99.90;;;;;;2072583;28;20041;-71
2021/08/23 03:27:53;;;;;;;13.85;12.35;;;19.30;99.90;;;;;;2072359;28;20038;-71
2021/08/23 03:28:53;;;;;;;11.27;10.07;;;19.30;99.90;;;;;;2072591;28;20026;-71
2021/08/23 03:29:54;;;;;;;12.27;9.52;;;19.30;99.90;;;;;;2072081;28;20030;-71
2021/08/23 03:30:54;;;;;;;12.35;11.10;;;19.30;99.90;;;;;;2070157;28;20037;-71
2021/08/23 03:31:55;;;;;;;14.73;12.95;;;19.30;99.90;;;;;;2072116;28;20076;-71
2021/08/23 03:32:56;;;;;;;17.27;13.27;;;19.30;99.90;;;;;;2071854;28;20022;-71
2021/08/23 03:33:56;;;;;;;14.57;13.07;;;19.30;99.90;;;;;;2064137;28;20025;-71
2021/08/23 03:34:57;;;;;;;14.80;13.30;;;19.30;99.90;;;;;;2067382;28;20078;-71
2021/08/23 03:35:57;;;;;;;17.35;15.48;;;19.30;99.90;;;;;;2072019;28;20022;-71
2021/08/23 03:36:58;;;;;;;17.48;15.90;;;19.30;99.90;;;;;;2072757;28;20022;-71
2021/08/23 03:38:01;;;;;;;17.38;15.20;;;19.30;99.90;;;;;;2071883;28;20046;-71
2021/08/23 03:39:02;;;;;;;15.90;14.23;;;19.30;99.90;;;;;;2072125;28;20020;-71
2021/08/23 03:40:03;;;;;;;21.20;14.70;;;19.30;99.90;;;;;;2071967;28;20022;-71
2021/08/23 03:41:04;;;;;;;18.85;17.05;;;19.30;99.90;;;;;;2072335;28;20025;-71
2021/08/23 03:42:05;;;;;;;18.30;16.35;;;19.40;99.90;;;;;;2074669;28;20034;-71
2021/08/23 03:43:05;;;;;;;19.70;17.60;;;19.40;99.90;;;;;;2077063;28;20017;-71
2021/08/23 03:44:06;;;;;;;21.08;18.92;;;19.40;99.90;;;;;;2071329;28;20529;-71
2021/08/23 03:45:07;;;;;;;21.08;18.98;;;19.40;99.90;;;;;;2071777;28;20449;-71
2021/08/23 03:46:07;;;;;;;21.00;18.67;;;19.40;99.90;;;;;;2065454;28;20022;-71
2021/08/23 03:47:08;;;;;;;21.23;18.98;;;19.40;99.90;;;;;;2072319;28;20504;-71
2021/08/23 03:48:09;;;;;;;20.48;18.27;;;19.40;99.90;;;;;;2072166;28;20026;-71
2021/08/23 03:49:09;;;;;;;21.20;19.10;;;19.40;99.90;;;;;;2072145;28;20026;-71
2021/08/23 03:50:10;;;;;;;20.85;18.85;;;19.40;99.90;;;;;;2071709;28;20462;-71
2021/08/23 03:51:11;;;;;;;21.23;19.05;;;19.40;99.90;;;;;;2071890;28;20034;-71
2021/08/23 03:52:11;;;;;;;21.13;19.02;;;19.40;99.90;;;;;;2071938;28;20061;-71
2021/08/23 03:53:12;;;;;;;20.45;18.30;;;19.40;99.90;;;;;;2071994;28;20030;-71
2021/08/23 03:54:13;;;;;;;22.10;19.80;;;19.40;99.90;;;;;;2071851;28;20160;-71
2021/08/23 03:55:13;;;;;;;22.13;19.92;;;19.40;99.90;;;;;;2072395;28;20026;-71
2021/08/23 03:56:14;;;;;;;19.90;18.00;;;19.40;99.90;;;;;;2073845;28;20026;-71
2021/08/23 03:57:14;;;;;;;22.10;20.00;;;19.40;99.90;;;;;;2072246;28;20028;-71
2021/08/23 03:58:15;;;;;;;21.60;19.40;;;19.40;99.90;;;;;;2071959;28;20374;-71
2021/08/23 03:59:16;;;;;;;19.23;17.38;;;19.40;99.90;;;;;;2072034;28;20022;-71
2021/08/23 04:00:16;;;;;;;22.80;20.65;;;19.40;99.90;;;;;;2072199;28;20018;-71
2021/08/23 04:01:17;;;;;;;23.30;21.08;;;19.40;99.90;;;;;;2072022;28;20030;-71
2021/08/23 04:02:17;;;;;;;23.60;21.25;;;19.40;99.90;;;;;;2071895;28;20478;-71
2021/08/23 04:03:18;;;;;;;24.05;21.75;;;19.40;99.90;;;;;;2071746;28;20017;-71
2021/08/23 04:04:18;;;;;;;26.02;22.23;;;19.50;99.90;;;;;;2072109;28;20045;-71
2021/08/23 04:05:19;;;;;;;24.40;21.95;;;19.40;99.90;;;;;;2071946;28;20026;-71
2021/08/23 04:06:19;;;;;;;22.52;20.23;;;19.40;99.90;;;;;;2071784;28;20026;-71
2021/08/23 04:07:20;;;;;;;23.17;20.95;;;19.40;99.90;;;;;;2071925;28;20029;-71
2021/08/23 04:08:21;;;;;;;24.75;22.45;;;19.40;99.90;;;;;;2072201;28;20422;-71
2021/08/23 04:09:21;;;;;;;23.15;20.95;;;19.40;99.90;;;;;;2072730;28;20034;-71
2021/08/23 04:10:22;;;;;;;24.85;22.23;;;19.40;99.90;;;;;;2080422;28;20487;-71
2021/08/23 04:11:22;;;;;;;24.58;22.05;;;19.40;99.90;;;;;;2071960;28;20113;-71
2021/08/23 04:12:23;;;;;;;24.13;21.55;;;19.40;99.90;;;;;;2072021;28;20144;-71
2021/08/23 04:13:23;;;;;;;24.17;21.75;;;19.40;99.90;;;;;;2071535;28;20355;-71
2021/08/23 04:14:24;;;;;;;25.15;22.65;;;19.40;99.90;;;;;;2071917;28;20080;-71
2021/08/23 04:15:24;;;;;;;24.67;22.17;;;19.50;99.90;;;;;;2071756;28;20386;-71
2021/08/23 04:16:25;;;;;;;25.15;22.70;;;19.40;99.90;;;;;;2072030;28;20140;-71
2021/08/23 04:17:26;;;;;;;28.85;25.90;;;19.40;99.90;;;;;;2071761;28;20032;-71
2021/08/23 04:18:27;;;;;;;27.45;24.52;;;19.40;99.90;;;;;;2072037;28;20025;-71
2021/08/23 04:19:29;;;;;;;29.45;25.00;;;19.40;99.90;;;;;;2071556;28;20025;-71
2021/08/23 04:20:30;;;;;;;27.48;24.80;;;19.40;99.90;;;;;;2072006;28;20033;-71
2021/08/23 04:21:30;;;;;;;23.08;20.67;;;19.40;99.90;;;;;;2071806;28;20057;-71
2021/08/23 04:22:31;;;;;;;25.70;22.92;;;19.40;99.90;;;;;;2071978;28;20029;-71
2021/08/23 04:23:32;;;;;;;27.35;24.70;;;19.40;99.90;;;;;;2074157;28;20040;-70
2021/08/23 04:24:32;;;;;;;27.48;24.58;;;19.40;99.90;;;;;;2072101;28;20113;-71
2021/08/23 04:25:33;;;;;;;23.13;20.70;;;19.40;99.90;;;;;;2071450;28;20034;-71
2021/08/23 04:26:34;;;;;;;29.08;26.20;;;19.40;99.90;;;;;;2071441;28;20049;-71
2021/08/23 04:27:34;;;;;;;30.30;27.00;;;19.40;99.90;;;;;;2071637;28;20398;-71
2021/08/23 04:28:35;;;;;;;28.15;25.15;;;19.40;99.90;;;;;;2071790;28;20026;-71
2021/08/23 04:29:36;;;;;;;26.13;23.58;;;19.30;99.90;;;;;;2071637;28;20112;-71
2021/08/23 04:30:36;;;;;;;27.50;24.27;;;19.30;99.90;;;;;;2071963;28;20021;-71
2021/08/23 04:31:37;;;;;;;29.60;26.63;;;19.30;99.90;;;;;;2073020;28;20059;-71
2021/08/23 04:32:37;;;;;;;28.70;25.73;;;19.30;99.90;;;;;;2071414;28;20034;-71
2021/08/23 04:33:38;;;;;;;29.88;26.92;;;19.30;99.90;;;;;;2071097;28;20113;-71
2021/08/23 04:34:38;;;;;;;26.70;23.88;;;19.30;99.90;;;;;;2071328;28;20406;-71
2021/08/23 04:35:39;;;;;;;30.73;27.73;;;19.30;99.90;;;;;;2071617;28;20026;-71
2021/08/23 04:36:40;;;;;;;29.63;26.63;;;19.30;99.90;;;;;;2071437;28;20053;-71
2021/08/23 04:37:40;;;;;;;30.20;27.08;;;19.30;99.90;;;;;;2073074;28;20414;-71
2021/08/23 04:38:41;;;;;;;30.27;27.17;;;19.30;99.90;;;;;;2071460;28;20426;-71
2021/08/23 04:39:43;;;;;;;29.92;26.92;;;19.30;99.90;;;;;;2071774;28;20053;-71
2021/08/23 04:40:44;;;;;;;30.73;27.42;;;19.30;99.90;;;;;;2071838;28;20023;-71
2021/08/23 04:41:44;;;;;;;28.90;25.83;;;19.30;99.90;;;;;;2071649;28;20037;-71
2021/08/23 04:42:45;;;;;;;28.45;25.67;;;19.30;99.90;;;;;;2071429;28;20026;-71
2021/08/23 04:43:45;;;;;;;28.65;25.85;;;19.30;99.90;;;;;;2070949;28;20030;-71
2021/08/23 04:44:46;;;;;;;27.65;24.75;;;19.20;99.90;;;;;;2071040;28;20760;-71
2021/08/23 04:45:46;;;;;;;29.33;26.38;;;19.20;99.90;;;;;;2071681;28;20026;-71
2021/08/23 04:46:49;;;;;;;30.67;27.60;;;19.20;99.90;;;;;;2071277;28;20033;-71
2021/08/23 04:47:49;;;;;;;29.58;26.70;;;19.20;99.90;;;;;;2071967;28;20049;-71
2021/08/23 04:48:52;;;;;;;30.55;27.50;;;19.20;99.90;;;;;;2071717;28;20034;-71
2021/08/23 04:49:52;;;;;;;32.45;28.17;;;19.20;99.90;;;;;;2071674;28;20493;-71
2021/08/23 04:50:53;;;;;;;31.60;28.60;;;19.20;99.90;;;;;;2074607;28;20497;-71
2021/08/23 04:51:53;;;;;;;31.17;26.35;;;19.20;99.90;;;;;;2071803;28;20030;-71
2021/08/23 04:52:54;;;;;;;30.85;27.75;;;19.20;99.90;;;;;;2071345;28;20059;-71
2021/08/23 04:53:54;;;;;;;30.60;27.50;;;19.20;99.90;;;;;;2071956;28;20029;-71
2021/08/23 04:55:00;;;;;;;32.10;28.63;;;19.20;99.90;;;;;;2070703;28;20072;-71
2021/08/23 04:56:01;;;;;;;31.90;28.50;;;19.20;99.90;;;;;;2071208;28;20034;-71
2021/08/23 04:57:01;;;;;;;31.55;28.52;;;19.20;99.90;;;;;;2071684;28;20022;-71
2021/08/23 04:58:02;;;;;;;28.23;25.50;;;19.20;99.90;;;;;;2071475;28;20524;-71
2021/08/23 04:59:03;;;;;;;31.77;28.48;;;19.20;99.90;;;;;;2070814;28;20026;-71
2021/08/23 05:00:07;;;;;;;30.60;27.55;;;19.20;99.90;;;;;;2071028;28;20018;-71
2021/08/23 05:01:08;;;;;;;31.88;28.65;;;19.20;99.90;;;;;;2071464;28;20022;-71
2021/08/23 05:02:08;;;;;;;28.17;25.42;;;19.20;99.90;;;;;;2071478;28;20021;-71
2021/08/23 05:03:09;;;;;;;29.65;26.80;;;19.20;99.90;;;;;;2071076;28;20375;-71
2021/08/23 05:04:10;;;;;;;30.60;27.60;;;19.20;99.90;;;;;;2071814;28;20022;-71
2021/08/23 05:05:10;;;;;;;29.30;26.10;;;19.20;99.90;;;;;;2078795;28;20025;-71
2021/08/23 05:06:11;;;;;;;30.55;27.48;;;19.20;99.90;;;;;;2073972;28;20483;-71
2021/08/23 05:07:11;;;;;;;31.35;28.33;;;19.20;99.90;;;;;;2071619;28;20030;-71
2021/08/23 05:08:12;;;;;;;31.52;28.42;;;19.30;99.90;;;;;;2071588;28;20498;-71
2021/08/23 05:09:12;;;;;;;31.13;27.42;;;19.20;99.90;;;;;;2071379;28;20456;-71
2021/08/23 05:10:13;;;;;;;30.15;27.15;;;19.20;99.90;;;;;;2071759;28;20117;-71
2021/08/23 05:11:13;;;;;;;29.75;26.92;;;19.20;99.90;;;;;;2071832;28;20060;-71
2021/08/23 05:12:14;;;;;;;28.80;25.90;;;19.20;99.90;;;;;;2071614;28;20094;-71
2021/08/23 05:13:15;;;;;;;25.00;22.48;;;19.20;99.90;;;;;;2071284;28;20022;-71
2021/08/23 05:14:16;;;;;;;29.73;26.70;;;19.20;99.90;;;;;;2071458;28;20084;-71
2021/08/23 05:15:16;;;;;;;29.52;26.42;;;19.20;99.90;;;;;;2071443;28;20033;-71
2021/08/23 05:16:17;;;;;;;30.10;27.05;;;19.30;99.90;;;;;;2070912;28;20394;-71